Time;durP1;ratioP1;P1;durP2;ratioP2;P2;SDS_P1;SDS_P2;PMS_P1;PMS_P2;Temp;Humidity;BMP_temperature;BMP_pressure;BME280_temperature;BME280_humidity;BME280_pressure;Samples;Min_cycle;Max_cycle;Signal;HPM_P1;HPM_P2
2022/01/07 00:01:04;;;;;;;7.97;5.35;;;;;;;2.66;79.66;99033.46;1702600;84;21930;-80
2022/01/07 00:03:31;;;;;;;9.70;6.22;;;;;;;2.62;79.68;99038.39;1738905;82;21055;-80
2022/01/07 00:05:59;;;;;;;9.58;5.70;;;;;;;2.60;79.67;99039.11;1716344;82;21535;-86
2022/01/07 00:08:29;;;;;;;6.12;5.33;;;;;;;2.59;79.66;99048.64;1741404;82;21005;-80
2022/01/07 00:10:55;;;;;;;10.48;7.50;;;;;;;2.58;79.61;99054.45;1700878;83;21031;-73
2022/01/07 00:13:23;;;;;;;7.90;6.05;;;;;;;2.56;79.60;99048.53;1710193;84;21596;-72
2022/01/07 00:15:49;;;;;;;7.67;5.75;;;;;;;2.54;79.68;99058.53;1710069;84;21016;-71
2022/01/07 00:18:17;;;;;;;9.55;5.87;;;;;;;2.53;79.72;99051.62;1708472;84;21024;-70
2022/01/07 00:20:45;;;;;;;7.70;5.62;;;;;;;2.53;79.79;99048.97;1709968;84;21031;-71
2022/01/07 00:23:12;;;;;;;6.30;5.35;;;;;;;2.52;79.83;99055.30;1725306;82;21059;-75
2022/01/07 00:25:39;;;;;;;7.92;5.60;;;;;;;2.47;79.90;99072.38;1741225;82;21544;-73
2022/01/07 00:28:05;;;;;;;6.80;5.60;;;;;;;2.48;80.02;99063.39;1740922;82;20939;-77
2022/01/07 00:30:33;;;;;;;8.68;6.62;;;;;;;2.50;80.08;99067.14;1741207;82;21537;-87
2022/01/07 00:33:00;;;;;;;7.20;5.50;;;;;;;2.52;80.08;99060.61;1741367;82;22187;-80
2022/01/07 00:35:26;;;;;;;6.22;4.60;;;;;;;2.54;80.03;99061.19;1713908;82;22212;-75
2022/01/07 00:37:53;;;;;;;6.22;5.15;;;;;;;2.56;79.79;99080.38;1740849;82;21871;-78
2022/01/07 00:40:22;;;;;;;6.45;5.62;;;;;;;2.57;79.49;99071.91;1713774;82;21532;-82
2022/01/07 00:42:50;;;;;;;7.85;5.03;;;;;;;2.59;79.29;99073.31;1740813;82;21095;-77
2022/01/07 00:45:18;;;;;;;5.50;4.90;;;;;;;2.57;78.94;99082.02;1741044;82;21009;-76
2022/01/07 00:47:45;;;;;;;7.58;5.12;;;;;;;2.58;78.82;99088.96;1740772;81;21011;-80
2022/01/07 00:50:12;;;;;;;6.00;5.42;;;;;;;2.59;78.77;99075.97;1740974;81;21075;-82
2022/01/07 00:52:39;;;;;;;6.95;5.00;;;;;;;2.62;78.74;99080.05;1740886;82;20936;-87
2022/01/07 00:55:07;;;;;;;6.35;4.65;;;;;;;2.63;78.50;99081.68;1741421;82;20991;-89
2022/01/07 00:57:33;;;;;;;8.83;6.10;;;;;;;2.63;78.22;99095.77;1741156;82;21016;-82
2022/01/07 00:59:59;;;;;;;4.40;3.98;;;;;;;2.63;78.11;99094.95;1741782;82;21035;-86
2022/01/07 01:02:25;;;;;;;6.55;4.20;;;;;;;2.64;78.01;99097.38;1743923;82;21070;-82
2022/01/07 01:04:52;;;;;;;4.40;3.90;;;;;;;2.63;77.58;99098.43;1742868;82;20980;-85
2022/01/07 01:07:18;;;;;;;4.45;4.03;;;;;;;2.64;77.44;99104.02;1724432;82;20963;-75
2022/01/07 01:09:45;;;;;;;5.03;3.92;;;;;;;2.63;77.19;99108.23;1741247;82;21094;-81
2022/01/07 01:12:13;;;;;;;4.17;3.77;;;;;;;2.61;77.15;99115.06;1725360;82;20928;-86
2022/01/07 01:14:40;;;;;;;4.72;3.60;;;;;;;2.58;77.04;99107.54;1742749;82;21132;-80
2022/01/07 01:17:07;;;;;;;3.75;2.80;;;;;;;2.55;76.87;99160.21;1742178;82;21525;-79
2022/01/07 01:19:33;;;;;;;3.77;2.98;;;;;;;2.51;76.64;99116.03;1741893;82;21015;-80
2022/01/07 01:22:00;;;;;;;2.55;2.35;;;;;;;2.47;76.54;99125.45;1725716;82;21008;-85
2022/01/07 01:24:26;;;;;;;3.35;2.92;;;;;;;2.45;76.62;99114.73;1742277;81;21012;-77
2022/01/07 01:26:52;;;;;;;2.55;2.33;;;;;;;2.43;76.69;99126.09;1724357;82;21730;-78
2022/01/07 01:29:20;;;;;;;2.33;2.12;;;;;;;2.39;76.79;99108.45;1741600;82;20936;-78
2022/01/07 01:31:49;;;;;;;3.00;2.60;;;;;;;2.34;76.83;99124.70;1741466;82;20932;-81
2022/01/07 01:34:15;;;;;;;4.05;2.85;;;;;;;2.28;76.96;99121.05;1741430;82;21548;-82
2022/01/07 01:36:43;;;;;;;3.25;2.58;;;;;;;2.27;77.15;99141.14;1741362;82;21470;-81
2022/01/07 01:39:12;;;;;;;3.33;3.02;;;;;;;2.22;77.31;99134.32;1741601;82;21564;-83
2022/01/07 01:41:39;;;;;;;4.20;2.70;;;;;;;2.18;77.50;99144.55;1741058;82;20989;-77
2022/01/07 01:44:05;;;;;;;2.92;2.67;;;;;;;2.18;77.62;99145.88;1741362;82;20989;-72
2022/01/07 01:46:32;;;;;;;3.25;2.67;;;;;;;2.17;77.77;99146.89;1700210;82;21079;-78
2022/01/07 01:48:58;;;;;;;3.17;2.47;;;;;;;2.16;77.88;99148.72;1741322;82;21024;-78
2022/01/07 01:51:24;;;;;;;3.47;3.22;;;;;;;2.14;77.98;99146.81;1741281;82;21096;-75
2022/01/07 01:53:51;;;;;;;2.85;2.58;;;;;;;2.14;78.01;99168.03;1741081;82;21163;-78
2022/01/07 01:56:18;;;;;;;3.40;2.70;;;;;;;2.12;77.94;99180.67;1732981;82;21035;-76
2022/01/07 01:58:44;;;;;;;3.33;3.00;;;;;;;2.14;78.00;99163.23;1700615;83;21083;-81
2022/01/07 02:01:10;;;;;;;3.55;2.37;;;;;;;2.15;77.98;99172.31;1716245;83;21514;-83
2022/01/07 02:03:37;;;;;;;3.27;2.58;;;;;;;2.16;78.01;99174.43;1707949;83;21609;-78
2022/01/07 02:06:04;;;;;;;2.70;2.50;;;;;;;2.17;78.05;99180.05;1715584;82;20960;-84
2022/01/07 02:08:31;;;;;;;2.50;2.27;;;;;;;2.19;78.08;99175.36;1707222;83;20984;-77
2022/01/07 02:11:00;;;;;;;2.92;2.70;;;;;;;2.22;77.98;99221.36;1715447;83;21070;-77
2022/01/07 02:13:27;;;;;;;3.17;2.60;;;;;;;2.21;77.69;99186.56;1707213;83;21052;-78
2022/01/07 02:15:53;;;;;;;3.37;2.75;;;;;;;2.23;77.77;99194.32;1706982;83;21029;-79
2022/01/07 02:18:21;;;;;;;2.40;2.20;;;;;;;2.23;77.79;99199.12;1715608;83;20972;-79
2022/01/07 02:20:48;;;;;;;2.00;1.90;;;;;;;2.24;77.81;99203.91;1706875;83;21997;-78
2022/01/07 02:23:17;;;;;;;2.33;2.12;;;;;;;2.25;77.78;99204.23;1707233;83;21067;-78
2022/01/07 02:25:46;;;;;;;2.83;2.55;;;;;;;2.25;77.77;99204.23;1715586;82;21064;-76
2022/01/07 02:28:13;;;;;;;3.05;2.67;;;;;;;2.24;77.77;99207.89;1706497;83;21815;-76
2022/01/07 02:30:39;;;;;;;1.95;1.80;;;;;;;2.23;77.79;99212.38;1714983;83;21591;-80
2022/01/07 02:33:05;;;;;;;2.40;2.20;;;;;;;2.22;77.91;99232.48;1715432;83;21028;-83
2022/01/07 02:35:34;;;;;;;1.85;1.75;;;;;;;2.24;78.09;99215.85;1715486;82;21592;-83
2022/01/07 02:38:02;;;;;;;1.75;1.62;;;;;;;2.24;78.19;99238.41;1707014;83;21051;-82
2022/01/07 02:40:29;;;;;;;2.60;2.40;;;;;;;2.24;78.44;99227.79;1703089;83;21113;-78
2022/01/07 02:42:55;;;;;;;1.77;1.60;;;;;;;2.22;78.94;99252.38;1710072;82;21057;-77
2022/01/07 02:45:21;;;;;;;1.70;1.60;;;;;;;2.17;79.45;99230.44;1684602;84;21060;-84
2022/01/07 02:47:54;;;;;;;2.00;1.87;;;;;;;2.12;80.15;99240.86;1655924;86;21113;-80
2022/01/07 02:50:23;;;;;;;2.55;2.35;;;;;;;2.06;81.07;99237.19;1685221;85;21055;-78
2022/01/07 02:52:50;;;;;;;2.83;2.08;;;;;;;1.95;82.99;99249.77;1684820;84;21171;-78
2022/01/07 02:55:16;;;;;;;2.30;2.10;;;;;;;1.90;83.70;99244.77;1747324;81;20948;-77
2022/01/07 02:57:43;;;;;;;2.08;1.87;;;;;;;1.83;84.71;99246.08;1713183;82;20962;-78
2022/01/07 03:00:11;;;;;;;2.33;2.12;;;;;;;1.75;85.47;99231.20;1702598;84;21089;-78
2022/01/07 03:02:37;;;;;;;2.60;2.40;;;;;;;1.71;86.10;99256.50;1710117;82;21002;-77
2022/01/07 03:05:05;;;;;;;3.27;2.25;;;;;;;1.66;86.57;99281.98;1709199;84;21828;-78
2022/01/07 03:07:31;;;;;;;3.40;2.50;;;;;;;1.62;86.91;99270.16;1701359;82;21014;-78
2022/01/07 03:09:58;;;;;;;2.37;2.17;;;;;;;1.58;87.13;99304.17;1713412;82;21060;-78
2022/01/07 03:12:24;;;;;;;2.98;2.08;;;;;;;1.52;86.42;99289.09;1716621;82;20988;-79
2022/01/07 03:14:50;;;;;;;2.65;2.35;;;;;;;1.49;86.35;99300.58;1692899;82;21051;-79
2022/01/07 03:17:16;;;;;;;3.40;2.10;;;;;;;1.49;86.51;99293.95;1730831;82;21133;-78
2022/01/07 03:19:43;;;;;;;5.28;2.10;;;;;;;1.44;86.33;99291.13;1697905;84;21065;-80
2022/01/07 03:22:09;;;;;;;3.22;2.92;;;;;;;1.43;86.35;99293.46;1679463;84;21604;-82
2022/01/07 03:24:37;;;;;;;2.90;2.02;;;;;;;1.41;85.97;99304.25;1701869;84;21672;-82
2022/01/07 03:27:05;;;;;;;1.98;1.80;;;;;;;1.37;85.81;99304.85;1697878;84;21037;-79
2022/01/07 03:29:33;;;;;;;2.20;2.00;;;;;;;1.38;85.85;99303.34;1679893;84;21564;-78
2022/01/07 03:32:00;;;;;;;2.10;1.90;;;;;;;1.36;85.83;99309.84;1702138;82;21074;-81
2022/01/07 03:34:26;;;;;;;2.33;2.12;;;;;;;1.34;85.69;99331.75;1697891;84;20989;-81
2022/01/07 03:36:53;;;;;;;3.27;1.60;;;;;;;1.30;85.38;99319.39;1697437;84;21052;-81
2022/01/07 03:39:19;;;;;;;2.25;2.15;;;;;;;1.30;85.49;99337.94;1697617;84;21022;-81
2022/01/07 03:41:45;;;;;;;2.65;2.30;;;;;;;1.27;85.75;99338.34;1726870;82;21204;-84
2022/01/07 03:44:12;;;;;;;1.87;1.70;;;;;;;1.26;85.86;99325.60;1697578;84;21033;-83
2022/01/07 03:46:38;;;;;;;2.00;1.80;;;;;;;1.25;85.72;99346.48;1697587;83;20966;-84
2022/01/07 03:49:04;;;;;;;1.80;1.70;;;;;;;1.23;85.39;99335.78;1718941;82;21016;-83
2022/01/07 03:51:30;;;;;;;3.02;2.25;;;;;;;1.23;85.21;99338.44;1733219;81;22935;-84
2022/01/07 03:53:57;;;;;;;1.65;1.55;;;;;;;1.24;85.05;99336.10;1714946;82;21089;-83
2022/01/07 03:56:23;;;;;;;1.85;1.65;;;;;;;1.24;84.55;99347.52;1731812;82;20999;-84
2022/01/07 03:58:50;;;;;;;1.60;1.50;;;;;;;1.24;83.96;99358.11;1709970;83;21501;-85
2022/01/07 04:01:16;;;;;;;1.90;1.62;;;;;;;1.24;82.93;99376.66;1727383;81;21061;-82
2022/01/07 04:03:42;;;;;;;1.50;1.40;;;;;;;1.24;82.39;99388.58;1752424;81;21075;-78
2022/01/07 04:06:10;;;;;;;1.40;1.30;;;;;;;1.26;81.50;99369.81;1737119;81;21064;-78
2022/01/07 04:08:36;;;;;;;2.05;1.52;;;;;;;1.25;80.93;99367.67;1736888;81;21032;-78
2022/01/07 04:11:04;;;;;;;2.03;1.53;;;;;;;1.23;80.35;99374.19;1752278;81;20985;-78
2022/01/07 04:13:31;;;;;;;1.85;1.65;;;;;;;1.24;80.17;99379.80;1752172;81;21041;-78
2022/01/07 04:15:57;;;;;;;1.57;1.47;;;;;;;1.24;79.77;99394.38;1732952;81;22205;-78
2022/01/07 04:18:25;;;;;;;1.82;1.60;;;;;;;1.25;79.63;99379.59;1706765;83;21037;-78
2022/01/07 04:20:52;;;;;;;1.37;1.27;;;;;;;1.26;79.60;99382.55;1732120;82;21063;-78
2022/01/07 04:23:18;;;;;;;1.90;1.80;;;;;;;1.27;79.73;99391.32;1739814;81;21055;-79
2022/01/07 04:25:45;;;;;;;1.85;1.55;;;;;;;1.28;79.86;99390.31;1725008;82;21078;-79
2022/01/07 04:28:11;;;;;;;1.32;1.22;;;;;;;1.28;80.07;99411.00;1739749;81;21040;-76
2022/01/07 04:30:41;;;;;;;1.60;1.50;;;;;;;1.27;80.26;99397.94;1739758;82;21512;-77
2022/01/07 04:33:09;;;;;;;1.40;1.30;;;;;;;1.26;80.54;99410.36;1737469;81;21122;-77
2022/01/07 04:35:35;;;;;;;2.27;1.35;;;;;;;1.23;80.76;99410.77;1721154;81;21526;-77
2022/01/07 04:38:03;;;;;;;1.75;1.35;;;;;;;1.21;81.08;99409.31;1720888;82;21013;-77
2022/01/07 04:40:29;;;;;;;2.63;2.23;;;;;;;1.18;81.28;99407.07;1731765;82;21075;-78
2022/01/07 04:42:56;;;;;;;1.30;1.20;;;;;;;1.16;81.61;99413.05;1725107;82;22362;-77
2022/01/07 04:45:22;;;;;;;2.37;2.17;;;;;;;1.13;82.03;99442.59;1739873;81;21549;-78
2022/01/07 04:47:48;;;;;;;2.85;1.98;;;;;;;1.11;82.41;99421.59;1739881;81;21651;-78
2022/01/07 04:50:17;;;;;;;3.17;1.45;;;;;;;1.09;82.95;99465.19;1739767;82;21046;-83
2022/01/07 04:52:44;;;;;;;1.80;1.70;;;;;;;1.06;83.47;99424.00;1739963;82;20921;-79
2022/01/07 04:55:19;;;;;;;2.83;1.90;;;;;;;1.06;83.83;99432.45;1715316;82;21033;-79
2022/01/07 04:57:45;;;;;;;1.47;1.47;;;;;;;1.06;84.26;99444.36;1703888;82;21046;-79
2022/01/07 05:00:14;;;;;;;2.77;1.65;;;;;;;1.05;84.74;99461.29;1748344;81;21506;-79
2022/01/07 05:02:41;;;;;;;2.57;1.90;;;;;;;1.01;85.56;99452.89;1757094;80;20943;-81
2022/01/07 05:05:08;;;;;;;2.07;1.80;;;;;;;1.02;85.71;99456.36;1756889;81;21466;-81
2022/01/07 05:07:36;;;;;;;3.40;3.20;;;;;;;1.03;86.20;99466.77;1740089;81;21151;-81
2022/01/07 05:10:06;;;;;;;3.13;2.67;;;;;;;1.03;86.63;99468.09;1758366;80;20960;-81
2022/01/07 05:12:32;;;;;;;2.22;2.02;;;;;;;1.01;87.71;99462.70;1740854;81;20928;-82
2022/01/07 05:14:59;;;;;;;3.27;2.50;;;;;;;0.94;88.40;99469.76;1761502;80;21046;-82
2022/01/07 05:17:25;;;;;;;1.90;1.80;;;;;;;0.87;89.00;99484.27;1767144;81;21034;-80
2022/01/07 05:19:51;;;;;;;2.70;1.80;;;;;;;0.81;89.56;99481.08;1767137;81;21097;-80
2022/01/07 05:22:19;;;;;;;2.20;2.00;;;;;;;0.79;89.69;99482.59;1767049;81;20998;-79
2022/01/07 05:24:45;;;;;;;2.37;2.20;;;;;;;0.79;89.99;99508.23;1767343;81;21084;-79
2022/01/07 05:27:11;;;;;;;2.13;1.93;;;;;;;0.77;90.03;99487.74;1767044;81;21052;-78
2022/01/07 05:29:37;;;;;;;2.70;2.50;;;;;;;0.75;89.71;99497.22;1767307;81;21041;-78
2022/01/07 05:32:07;;;;;;;2.60;2.40;;;;;;;0.75;89.53;99495.90;1767272;81;21492;-78
2022/01/07 05:34:34;;;;;;;3.23;2.70;;;;;;;0.77;89.49;99500.98;1767428;81;21016;-79
2022/01/07 05:37:00;;;;;;;3.13;2.07;;;;;;;0.76;89.21;99499.37;1747291;81;21043;-78
2022/01/07 05:39:27;;;;;;;2.20;2.00;;;;;;;0.76;88.98;99524.02;1735235;82;21036;-79
2022/01/07 05:41:53;;;;;;;2.20;2.00;;;;;;;0.76;88.93;99525.83;1735233;81;21061;-77
2022/01/07 05:44:19;;;;;;;2.63;2.43;;;;;;;0.76;88.86;99537.24;1741884;82;21030;-78
2022/01/07 05:46:45;;;;;;;2.00;1.87;;;;;;;0.74;88.75;99543.22;1735229;82;21639;-79
2022/01/07 05:49:12;;;;;;;2.10;2.00;;;;;;;0.73;88.70;99538.11;1735301;82;21023;-79
2022/01/07 05:51:38;;;;;;;3.35;2.47;;;;;;;0.71;88.71;99542.28;1741986;82;20956;-78
2022/01/07 05:54:04;;;;;;;2.37;2.17;;;;;;;0.71;88.77;99554.70;1735028;82;21172;-80
2022/01/07 05:56:33;;;;;;;2.40;2.20;;;;;;;0.74;88.76;99564.89;1735786;81;21884;-83
2022/01/07 05:58:59;;;;;;;3.87;1.83;;;;;;;0.74;88.76;99564.39;1731620;82;22204;-83
2022/01/07 06:01:26;;;;;;;2.90;2.13;;;;;;;0.72;88.95;99567.72;1727931;83;21076;-82
2022/01/07 06:03:52;;;;;;;4.67;2.07;;;;;;;0.69;89.07;99564.14;1727964;82;21087;-83
2022/01/07 06:06:20;;;;;;;2.40;1.83;;;;;;;0.67;88.90;99578.05;1734438;82;20953;-82
2022/01/07 06:08:46;;;;;;;1.60;1.30;;;;;;;0.64;88.88;99593.50;1727967;83;21632;-83
2022/01/07 06:11:13;;;;;;;1.40;1.40;;;;;;;0.56;89.00;99593.12;1734582;82;21078;-83
2022/01/07 06:13:41;;;;;;;1.57;1.47;;;;;;;0.46;89.46;99601.87;1727857;83;21044;-80
2022/01/07 06:16:09;;;;;;;1.50;1.40;;;;;;;0.37;89.88;99591.09;1730009;81;21017;-79
2022/01/07 06:18:39;;;;;;;1.90;1.70;;;;;;;0.31;90.09;99598.44;1728670;83;21060;-77
2022/01/07 06:21:03;;;;;;;2.83;1.87;;;;;;;0.29;90.28;99607.05;1728899;82;21214;-77
2022/01/07 06:23:30;;;;;;;2.60;2.13;;;;;;;0.28;90.54;99613.36;1749588;82;20995;-79
2022/01/07 06:25:57;;;;;;;2.47;1.77;;;;;;;0.24;90.54;99618.71;1751363;82;21102;-79
2022/01/07 06:28:24;;;;;;;2.57;2.20;;;;;;;0.19;90.44;99640.39;1750744;82;21000;-80
2022/01/07 06:30:51;;;;;;;3.93;2.90;;;;;;;0.16;90.05;99648.70;1750213;82;21090;-80
2022/01/07 06:33:17;;;;;;;2.97;2.27;;;;;;;0.14;89.60;99638.83;1749638;82;21513;-79
2022/01/07 06:35:45;;;;;;;3.50;2.50;;;;;;;0.13;88.95;99658.34;1740027;82;21041;-80
2022/01/07 06:38:11;;;;;;;4.27;2.33;;;;;;;0.13;88.72;99648.27;1764705;81;21138;-79
2022/01/07 06:40:38;;;;;;;1.87;1.77;;;;;;;0.10;87.71;99654.72;1759837;81;21052;-79
2022/01/07 06:43:04;;;;;;;3.70;2.50;;;;;;;0.06;85.04;99675.92;1759629;80;21672;-78
2022/01/07 06:45:32;;;;;;;1.50;1.40;;;;;;;0.05;82.90;99678.23;1759724;81;21085;-79
2022/01/07 06:47:58;;;;;;;1.50;1.33;;;;;;;0.00;78.35;99674.03;1742113;81;20973;-76
2022/01/07 06:50:24;;;;;;;5.97;2.30;;;;;;;-0.05;75.85;99707.59;1742117;81;21444;-81
2022/01/07 06:52:51;;;;;;;2.40;1.60;;;;;;;-0.07;74.04;99719.36;1759583;81;21044;-82
2022/01/07 06:55:18;;;;;;;2.90;2.60;;;;;;;-0.05;73.76;99699.66;1759640;81;21057;-83
2022/01/07 06:57:44;;;;;;;2.17;1.67;;;;;;;-0.08;70.81;99698.71;1741858;81;21193;-79
2022/01/07 07:00:11;;;;;;;2.73;1.67;;;;;;;-0.09;68.72;99731.42;1742421;81;20993;-80
2022/01/07 07:02:38;;;;;;;2.47;1.90;;;;;;;-0.11;65.50;99732.13;1759299;81;20916;-85
2022/01/07 07:05:07;;;;;;;2.97;2.27;;;;;;;-0.14;64.89;99747.50;1728736;82;21028;-84
2022/01/07 07:07:34;;;;;;;2.00;1.63;;;;;;;-0.16;64.07;99743.73;1711728;83;21357;-81
2022/01/07 07:10:01;;;;;;;3.93;2.17;;;;;;;-0.19;62.43;99722.14;1748641;79;21029;-86
2022/01/07 07:12:27;;;;;;;2.53;1.60;;;;;;;-0.23;62.29;99742.80;1718236;81;21016;-82
2022/01/07 07:14:53;;;;;;;1.50;1.40;;;;;;;-0.24;63.11;99757.00;1708566;84;21024;-84
2022/01/07 07:17:20;;;;;;;2.07;1.57;;;;;;;-0.26;62.96;99771.41;1746294;81;21023;-86
2022/01/07 07:19:47;;;;;;;1.90;1.57;;;;;;;-0.26;63.38;99752.41;1742446;81;21652;-85
2022/01/07 07:22:14;;;;;;;2.00;1.90;;;;;;;-0.28;63.65;99770.25;1759036;81;21659;-85
2022/01/07 07:24:40;;;;;;;2.03;1.60;;;;;;;-0.30;63.48;99825.62;1759740;81;21509;-85
2022/01/07 07:27:06;;;;;;;1.70;1.30;;;;;;;-0.30;63.92;99784.66;1748972;81;21604;-88
2022/01/07 07:29:34;;;;;;;2.97;1.63;;;;;;;-0.29;64.22;99783.17;1750227;81;21071;-85
2022/01/07 07:32:05;;;;;;;2.10;1.77;;;;;;;-0.26;64.55;99784.12;1751585;81;20988;-87
2022/01/07 07:34:55;;;;;;;1.60;1.50;;;;;;;-0.23;64.73;99822.08;1750188;82;21549;-86
2022/01/07 07:37:01;;;;;;;1.77;1.67;;;;;;;-0.21;64.42;99798.13;1747384;82;20989;-85
2022/01/07 07:39:29;;;;;;;1.77;1.50;;;;;;;-0.25;63.79;99822.77;1733077;82;21044;-88
2022/01/07 07:41:57;;;;;;;1.47;1.37;;;;;;;-0.24;64.12;99791.88;1734219;82;20945;-81
2022/01/07 07:44:30;;;;;;;2.57;1.50;;;;;;;-0.26;63.08;99805.27;1752277;80;20975;-83
2022/01/07 07:46:57;;;;;;;2.20;2.03;;;;;;;-0.30;62.65;99814.55;1739785;81;21025;-84
2022/01/07 07:49:26;;;;;;;2.93;2.33;;;;;;;-0.29;62.96;99810.91;1730037;81;21067;-86
2022/01/07 07:51:55;;;;;;;1.63;1.53;;;;;;;-0.30;62.67;99820.33;1731264;83;21087;-81
2022/01/07 07:54:22;;;;;;;1.40;1.27;;;;;;;-0.30;62.60;99844.11;1758724;76;20906;-84
2022/01/07 07:56:50;;;;;;;1.70;1.57;;;;;;;-0.30;62.27;99819.01;1795105;80;21067;-86
2022/01/07 07:59:19;;;;;;;1.63;1.50;;;;;;;-0.32;61.83;99825.78;1768615;80;21126;-85
2022/01/07 08:01:47;;;;;;;2.27;1.80;;;;;;;-0.33;61.53;99845.27;1787859;79;21011;-87
2022/01/07 08:04:15;;;;;;;1.50;1.40;;;;;;;-0.35;61.20;99841.17;1767630;80;20988;-88
2022/01/07 08:06:41;;;;;;;1.97;1.67;;;;;;;-0.33;61.47;99843.13;1772093;80;21007;-86
2022/01/07 08:09:10;;;;;;;1.70;1.37;;;;;;;-0.32;60.12;99854.02;1764084;81;21530;-84
2022/01/07 08:11:49;;;;;;;2.83;1.83;;;;;;;-0.31;60.27;99861.78;1764255;81;21255;-85
2022/01/07 08:16:53;;;;;;;2.60;2.03;;;;;;;-0.31;59.40;99868.89;1763848;81;20900;-85
2022/01/07 08:19:20;;;;;;;2.27;2.03;;;;;;;-0.31;59.32;99870.20;1763994;81;20984;-87
2022/01/07 08:21:46;;;;;;;2.17;1.70;;;;;;;-0.29;59.20;99878.30;1764831;81;21004;-82
2022/01/07 08:24:13;;;;;;;1.70;1.60;;;;;;;-0.27;59.52;99868.85;1764642;81;21051;-87
2022/01/07 08:26:39;;;;;;;2.47;1.80;;;;;;;-0.24;59.64;99889.14;1777038;80;20956;-87
2022/01/07 08:29:08;;;;;;;1.83;1.73;;;;;;;-0.22;59.33;99888.48;1782418;80;21046;-83
2022/01/07 08:36:52;;;;;;;2.63;1.70;;;;;;;-0.31;56.08;99929.66;1782627;80;21252;-88
2022/01/07 08:39:18;;;;;;;2.03;1.40;;;;;;;-0.36;56.67;99931.50;1738153;80;20949;-84
2022/01/07 08:41:45;;;;;;;1.67;1.57;;;;;;;-0.36;55.80;99933.32;1764483;81;21640;-87
2022/01/07 08:44:13;;;;;;;2.33;1.67;;;;;;;-0.42;55.57;99929.55;1742849;81;21008;-88
2022/01/07 08:46:43;;;;;;;1.83;1.60;;;;;;;-0.41;55.78;99941.77;1762648;80;20968;-81
2022/01/07 08:49:09;;;;;;;1.70;1.60;;;;;;;-0.46;54.80;99983.73;1765245;80;21446;-82
2022/01/07 08:51:37;;;;;;;6.43;1.87;;;;;;;-0.46;55.00;99946.75;1737459;81;20933;-91
2022/01/07 08:54:08;;;;;;;2.00;1.77;;;;;;;-0.52;54.71;99954.03;1714807;81;20921;-88
2022/01/07 08:56:37;;;;;;;1.43;1.33;;;;;;;-0.56;54.56;100002.92;1762498;81;21072;-90
2022/01/07 08:59:05;;;;;;;1.30;1.30;;;;;;;-0.61;54.25;100021.09;1738870;81;21111;-88
2022/01/07 09:01:42;;;;;;;2.97;1.70;;;;;;;-0.62;54.83;100007.06;1767734;80;21530;-80
2022/01/07 09:04:15;;;;;;;2.00;1.60;;;;;;;-0.61;54.80;99980.16;1763029;81;21546;-83
2022/01/07 09:06:45;;;;;;;3.13;1.60;;;;;;;-0.64;54.38;99998.50;1763309;80;21000;-82
2022/01/07 09:09:11;;;;;;;2.93;1.50;;;;;;;-0.64;54.79;99996.35;1783629;80;21021;-87
2022/01/07 09:11:41;;;;;;;2.07;1.50;;;;;;;-0.62;54.97;99992.53;1764279;81;21027;-91
2022/01/07 09:16:52;;;;;;;2.22;1.57;;;;;;;-0.59;54.86;99998.81;1783746;80;20981;-89
2022/01/07 09:19:19;;;;;;;1.63;1.53;;;;;;;-0.59;54.98;100004.59;1742145;80;21099;-94
2022/01/07 09:21:46;;;;;;;1.13;1.13;;;;;;;-0.57;55.32;99997.30;1766262;80;21009;-84
2022/01/07 09:24:13;;;;;;;1.80;1.20;;;;;;;-0.58;55.13;100013.67;1771889;80;21083;-82
2022/01/07 09:26:41;;;;;;;3.23;1.70;;;;;;;-0.57;55.42;99998.63;1755652;80;21137;-79
2022/01/07 09:29:07;;;;;;;4.57;1.87;;;;;;;-0.55;55.29;100008.04;1765166;80;20976;-80
2022/01/07 09:31:41;;;;;;;2.30;1.47;;;;;;;-0.54;55.28;99993.84;1760035;80;21588;-81
2022/01/07 09:34:11;;;;;;;1.93;1.57;;;;;;;-0.48;55.85;100010.31;1780799;80;21576;-80
2022/01/07 09:36:37;;;;;;;2.57;1.30;;;;;;;-0.43;55.63;100019.05;1795608;80;21000;-83
2022/01/07 09:39:03;;;;;;;2.20;1.80;;;;;;;-0.41;55.35;100019.70;1707374;83;21807;-78
2022/01/07 09:41:30;;;;;;;1.47;1.37;;;;;;;-0.45;54.78;100027.16;1713763;82;21023;-83
2022/01/07 09:43:57;;;;;;;1.67;1.20;;;;;;;-0.45;54.89;100017.09;1715028;83;21516;-84
2022/01/07 09:46:23;;;;;;;1.40;1.30;;;;;;;-0.47;54.86;100032.27;1715394;83;21036;-83
2022/01/07 09:48:51;;;;;;;4.80;3.53;;;;;;;-0.49;55.22;100067.30;1714587;83;20957;-84
2022/01/07 09:51:18;;;;;;;1.80;1.20;;;;;;;-0.48;54.86;100042.02;1690169;83;21121;-79
2022/01/07 09:53:44;;;;;;;2.47;1.87;;;;;;;-0.48;55.04;100045.18;1697019;83;20989;-78
2022/01/07 09:56:11;;;;;;;6.23;1.57;;;;;;;-0.45;55.51;100035.58;1702275;82;21017;-81
2022/01/07 09:58:38;;;;;;;1.20;1.10;;;;;;;-0.44;55.28;100043.84;1698650;84;21566;-80
2022/01/07 10:01:16;;;;;;;1.93;1.20;;;;;;;-0.45;54.97;100065.47;1698747;84;21072;-82
2022/01/07 10:03:44;;;;;;;2.17;1.60;;;;;;;-0.41;55.51;100054.55;1698308;84;21556;-81
2022/01/07 10:06:24;;;;;;;1.43;1.33;;;;;;;-0.42;55.36;100034.41;1698296;83;21542;-81
2022/01/07 10:09:14;;;;;;;1.47;1.30;;;;;;;-0.37;55.75;100044.79;1683379;84;20997;-82
2022/01/07 10:11:35;;;;;;;1.60;1.50;;;;;;;-0.34;55.93;100047.61;1683020;84;21065;-80
2022/01/07 10:14:21;;;;;;;1.80;1.13;;;;;;;-0.31;56.02;100036.68;1698351;83;20989;-83
2022/01/07 10:16:53;;;;;;;1.77;1.50;;;;;;;-0.25;56.21;100029.40;1684314;84;21075;-82
2022/01/07 10:19:39;;;;;;;2.70;1.27;;;;;;;-0.28;55.22;100073.33;1698011;83;21564;-85
2022/01/07 10:22:13;;;;;;;2.33;2.00;;;;;;;-0.30;55.32;100064.77;1684297;84;20997;-82
2022/01/07 10:24:55;;;;;;;2.63;1.50;;;;;;;-0.29;55.27;100084.42;1683034;84;22221;-82
2022/01/07 10:27:24;;;;;;;1.80;1.67;;;;;;;-0.25;55.54;100059.79;1698538;83;21010;-81
2022/01/07 10:29:51;;;;;;;3.50;1.57;;;;;;;-0.17;55.66;100057.10;1698066;83;21083;-81
2022/01/07 10:32:24;;;;;;;1.43;1.33;;;;;;;-0.11;55.67;100074.93;1698339;83;21570;-82
2022/01/07 10:35:17;;;;;;;2.70;2.50;;;;;;;-0.10;55.17;100080.55;1697821;83;20953;-80
2022/01/07 10:37:58;;;;;;;4.00;1.70;;;;;;;-0.06;55.59;100053.59;1696327;84;21498;-82
2022/01/07 10:40:34;;;;;;;2.03;1.80;;;;;;;0.02;55.69;100055.86;1698017;83;21601;-83
2022/01/07 10:43:21;;;;;;;2.70;1.60;;;;;;;0.08;55.40;100053.36;1697866;84;21188;-80
2022/01/07 10:45:54;;;;;;;4.10;1.50;;;;;;;0.06;54.27;100063.27;1697952;84;21009;-80
2022/01/07 10:48:25;;;;;;;3.50;1.90;;;;;;;0.06;54.33;100057.16;1683999;84;20984;-83
2022/01/07 10:50:52;;;;;;;2.33;1.40;;;;;;;0.04;54.55;100072.39;1696912;84;21527;-81
2022/01/07 10:53:25;;;;;;;1.53;1.33;;;;;;;0.05;54.69;100064.78;1698361;83;21029;-81
2022/01/07 10:56:08;;;;;;;1.85;1.40;;;;;;;0.07;54.81;100084.75;1703413;83;21249;-81
2022/01/07 10:58:51;;;;;;;2.10;1.50;;;;;;;0.13;54.50;100068.20;1792264;80;21032;-83
2022/01/07 11:01:54;;;;;;;1.42;1.32;;;;;;;0.19;54.02;100064.84;1727157;82;21061;-82
2022/01/07 11:04:25;;;;;;;1.67;1.50;;;;;;;0.29;54.08;100061.98;1728225;82;21487;-82
2022/01/07 11:06:53;;;;;;;4.43;1.43;;;;;;;0.44;53.59;100072.14;1791984;79;20962;-83
2022/01/07 11:09:20;;;;;;;2.07;1.50;;;;;;;0.47;53.72;100059.91;1791719;80;21977;-84
2022/01/07 11:11:51;;;;;;;3.57;1.70;;;;;;;0.51;53.83;100094.27;1739233;82;21550;-86
2022/01/07 11:14:28;;;;;;;2.40;1.63;;;;;;;0.54;53.21;100075.39;1766664;80;21555;-83
2022/01/07 11:16:57;;;;;;;2.67;1.87;;;;;;;0.53;53.17;100077.70;1760626;81;21551;-86
2022/01/07 11:19:35;;;;;;;2.80;1.70;;;;;;;0.50;53.34;100063.51;1761192;81;21043;-82
2022/01/07 11:22:01;;;;;;;1.70;1.60;;;;;;;0.47;53.57;100067.84;1768409;80;20924;-83
2022/01/07 11:24:36;;;;;;;2.03;1.93;;;;;;;0.39;53.70;100070.02;1760552;81;21012;-82
2022/01/07 11:27:13;;;;;;;1.50;1.40;;;;;;;0.36;54.27;100058.97;1744877;81;21017;-83
2022/01/07 11:29:49;;;;;;;1.87;1.30;;;;;;;0.30;54.73;100076.36;1770163;80;20945;-81
2022/01/07 11:32:30;;;;;;;4.43;1.90;;;;;;;0.27;55.24;100068.78;1786243;80;21032;-83
2022/01/07 11:35:16;;;;;;;2.97;1.80;;;;;;;0.27;55.70;100054.24;1762095;81;21037;-82
2022/01/07 11:37:46;;;;;;;2.60;1.57;;;;;;;0.30;56.19;100075.53;1747974;81;20937;-81
2022/01/07 11:40:43;;;;;;;2.13;1.47;;;;;;;0.31;56.76;100076.70;1763083;81;20937;-80
2022/01/07 11:43:25;;;;;;;2.50;2.23;;;;;;;0.29;57.36;100093.23;1762740;81;20965;-84
2022/01/07 11:45:51;;;;;;;4.97;2.03;;;;;;;0.24;57.96;100077.58;1763137;81;21060;-84
2022/01/07 11:48:27;;;;;;;4.07;2.07;;;;;;;0.20;58.48;100082.37;1711291;84;21500;-86
2022/01/07 11:50:59;;;;;;;1.90;1.80;;;;;;;0.19;59.02;100094.46;1754421;80;20983;-84
2022/01/07 11:53:41;;;;;;;4.67;1.80;;;;;;;0.17;59.39;100114.46;1747811;82;21513;-85